Time;durP1;ratioP1;P1;durP2;ratioP2;P2;SDS_P1;SDS_P2;PMS_P1;PMS_P2;Temp;Humidity;BMP_temperature;BMP_pressure;BME280_temperature;BME280_humidity;BME280_pressure;Samples;Min_cycle;Max_cycle;Signal;HPM_P1;HPM_P2
2021/06/11 00:02:00;;;;;;;;;;;;;;;;;;5110385;28;20128;-75
2021/06/11 00:04:27;;;;;;;25.10;17.02;;;;;;;;;;5110693;28;20076;-74
2021/06/11 00:06:53;;;;;;;;;;;;;;;;;;5111594;28;20051;-75
2021/06/11 00:09:19;;;;;;;25.52;18.08;;;;;;;;;;5110568;28;19924;-74
2021/06/11 00:11:46;;;;;;;27.17;18.20;;;;;;;;;;5105258;28;20488;-75
2021/06/11 00:14:12;;;;;;;27.77;18.88;;;;;;;;;;5111465;28;20031;-76
2021/06/11 00:16:39;;;;;;;27.63;18.55;;;;;;;;;;5110500;28;20391;-75
2021/06/11 00:19:05;;;;;;;27.90;19.50;;;;;;;;;;5110582;28;20094;-77
2021/06/11 00:21:31;;;;;;;;;;;;;;;;;;5109847;28;20054;-73
2021/06/11 00:23:57;;;;;;;31.15;20.70;;;;;;;;;;5111076;28;19984;-77
2021/06/11 00:26:23;;;;;;;32.97;22.25;;;;;;;;;;5109386;28;20541;-76
2021/06/11 00:28:49;;;;;;;37.42;23.65;;;;;;;;;;5101544;28;20039;-75
2021/06/11 00:31:16;;;;;;;39.03;23.95;;;;;;;;;;5111067;28;20112;-75
2021/06/11 00:33:42;;;;;;;37.40;26.70;;;;;;;;;;5111455;28;20070;-75
2021/06/11 00:36:08;;;;;;;;;;;;;;;;;;5111034;28;20032;-76
2021/06/11 00:38:34;;;;;;;37.80;25.25;;;;;;;;;;5110646;28;20363;-74
2021/06/11 00:41:00;;;;;;;36.28;24.88;;;;;;;;;;5111009;28;20047;-75
2021/06/11 00:43:27;;;;;;;37.85;25.52;;;;;;;;;;5092191;28;20640;-74
2021/06/11 00:45:53;;;;;;;34.15;24.77;;;;;;;;;;5110723;28;20118;-75
2021/06/11 00:48:19;;;;;;;;;;;;;;;;;;5110497;28;20040;-75
2021/06/11 00:50:45;;;;;;;40.42;26.35;;;;;;;;;;5097443;28;19965;-77
2021/06/11 00:53:12;;;;;;;40.00;27.00;;;;;;;;;;5110278;28;20111;-77
2021/06/11 00:55:44;;;;;;;38.92;26.27;;;;;;;;;;5108730;28;20486;-77
2021/06/11 00:58:11;;;;;;;43.67;27.58;;;;;;;;;;5097488;28;20048;-76
2021/06/11 01:00:38;;;;;;;44.60;27.02;;;;;;;;;;5109729;28;20119;-75
2021/06/11 01:03:06;;;;;;;39.70;26.58;;;;;;;;;;5110704;28;20039;-77
2021/06/11 01:05:32;;;;;;;46.58;29.00;;;;;;;;;;5098512;28;20118;-78
2021/06/11 01:08:01;;;;;;;37.42;25.35;;;;;;;;;;5110782;28;20042;-78
2021/06/11 01:10:28;;;;;;;45.00;28.00;;;;;;;;;;5108821;28;20118;-75
2021/06/11 01:12:55;;;;;;;31.77;21.67;;;;;;;;;;5110355;28;20374;-77
2021/06/11 01:15:22;;;;;;;41.38;27.13;;;;;;;;;;5109841;28;20058;-78
2021/06/11 01:17:54;;;;;;;44.55;29.00;;;;;;;;;;5110995;28;20536;-78
2021/06/11 01:20:22;;;;;;;43.35;27.10;;;;;;;;;;5099126;28;20039;-75
2021/06/11 01:23:07;;;;;;;40.58;25.55;;;;;;;;;;5109869;28;20107;-73
2021/06/11 01:25:37;;;;;;;36.90;25.50;;;;;;;;;;5108414;28;20434;-73
2021/06/11 01:28:04;;;;;;;42.53;28.40;;;;;;;;;;5101171;28;20090;-73
2021/06/11 01:30:31;;;;;;;41.15;26.77;;;;;;;;;;5110039;28;20468;-75
2021/06/11 01:32:59;;;;;;;41.50;25.25;;;;;;;;;;5110463;28;20043;-75
2021/06/11 01:35:28;;;;;;;41.08;25.63;;;;;;;;;;5112780;28;20047;-75
2021/06/11 01:38:00;;;;;;;41.70;26.10;;;;;;;;;;5113998;28;20437;-74
2021/06/11 01:40:27;;;;;;;38.45;24.45;;;;;;;;;;5112289;28;20032;-73
2021/06/11 01:42:54;;;;;;;41.55;25.98;;;;;;;;;;5114098;28;20035;-75
2021/06/11 01:45:21;;;;;;;42.67;26.70;;;;;;;;;;5113602;28;20050;-73
2021/06/11 01:47:48;;;;;;;38.95;27.42;;;;;;;;;;5114053;28;20043;-74
2021/06/11 01:50:25;;;;;;;40.35;25.60;;;;;;;;;;5112821;28;20520;-75
2021/06/11 01:52:53;;;;;;;42.67;28.23;;;;;;;;;;5113542;28;20036;-73
2021/06/11 01:55:21;;;;;;;46.22;28.30;;;;;;;;;;5099147;28;20111;-74
2021/06/11 01:57:47;;;;;;;41.78;27.05;;;;;;;;;;5113627;28;20047;-77
2021/06/11 02:00:14;;;;;;;44.22;26.83;;;;;;;;;;5113952;28;20368;-76
2021/06/11 02:02:40;;;;;;;46.22;27.52;;;;;;;;;;5114038;28;20036;-76
2021/06/11 02:05:07;;;;;;;41.88;25.40;;;;;;;;;;5113236;28;20091;-73
2021/06/11 02:07:36;;;;;;;48.80;28.95;;;;;;;;;;5112970;28;20040;-73
2021/06/11 02:10:05;;;;;;;38.42;25.92;;;;;;;;;;5112026;28;20036;-74
2021/06/11 02:12:33;;;;;;;48.88;28.70;;;;;;;;;;5113040;28;20044;-76
2021/06/11 02:15:01;;;;;;;52.78;29.98;;;;;;;;;;5113407;28;20032;-75
2021/06/11 02:17:27;;;;;;;46.88;26.77;;;;;;;;;;5112877;28;20047;-77
2021/06/11 02:19:54;;;;;;;46.83;27.45;;;;;;;;;;5113890;28;20389;-75
2021/06/11 02:22:20;;;;;;;39.97;25.10;;;;;;;;;;5113600;28;20027;-75
2021/06/11 02:24:48;;;;;;;50.42;29.02;;;;;;;;;;5094407;28;20031;-75
2021/06/11 02:27:14;;;;;;;44.50;27.25;;;;;;;;;;5109923;28;20107;-75
2021/06/11 02:29:40;;;;;;;43.53;27.55;;;;;;;;;;5106100;28;20054;-77
2021/06/11 02:32:07;;;;;;;;;;;;;;;;;;5113566;28;20039;-75
2021/06/11 02:34:33;;;;;;;54.72;30.70;;;;;;;;;;5100731;28;19915;-75
2021/06/11 02:36:59;;;;;;;;;;;;;;;;;;5111364;28;20036;-74
2021/06/11 02:39:25;;;;;;;50.13;29.13;;;;;;;;;;5094131;28;19923;-75
2021/06/11 02:41:56;;;;;;;51.72;29.02;;;;;;;;;;5111867;28;20039;-77
2021/06/11 02:44:24;;;;;;;58.63;33.05;;;;;;;;;;5112621;28;20035;-76
2021/06/11 02:46:59;;;;;;;54.17;31.92;;;;;;;;;;5112734;28;20039;-78
2021/06/11 02:49:28;;;;;;;52.83;31.52;;;;;;;;;;5093852;28;20052;-76
2021/06/11 02:51:56;;;;;;;51.28;30.75;;;;;;;;;;5113153;28;20048;-74
2021/06/11 02:54:24;;;;;;;57.38;31.85;;;;;;;;;;5112758;28;20127;-78
2021/06/11 02:56:59;;;;;;;55.90;31.95;;;;;;;;;;5112632;28;20036;-76
2021/06/11 02:59:27;;;;;;;53.90;31.27;;;;;;;;;;5104673;28;20111;-74
2021/06/11 03:01:59;;;;;;;55.05;32.88;;;;;;;;;;5099573;28;20036;-74
2021/06/11 03:04:28;;;;;;;53.75;31.65;;;;;;;;;;5112751;28;20384;-75
2021/06/11 03:06:55;;;;;;;51.15;30.75;;;;;;;;;;5112299;28;20043;-76
2021/06/11 03:09:23;;;;;;;55.28;31.20;;;;;;;;;;5112036;28;20068;-73
2021/06/11 03:11:56;;;;;;;43.70;28.15;;;;;;;;;;5111087;28;20043;-78
2021/06/11 03:14:24;;;;;;;50.67;30.45;;;;;;;;;;5113223;28;20384;-76
2021/06/11 03:16:51;;;;;;;52.17;31.80;;;;;;;;;;5112482;28;20040;-74
2021/06/11 03:19:20;;;;;;;48.47;29.95;;;;;;;;;;5094353;28;20043;-74
2021/06/11 03:21:48;;;;;;;49.85;29.83;;;;;;;;;;5111201;28;20066;-77
2021/06/11 03:24:14;;;;;;;50.80;31.08;;;;;;;;;;5112704;28;20100;-74
2021/06/11 03:26:40;;;;;;;;;;;;;;;;;;5111169;28;20051;-73
2021/06/11 03:29:09;;;;;;;55.23;32.07;;;;;;;;;;5103942;28;19920;-74
2021/06/11 03:31:42;;;;;;;49.63;30.42;;;;;;;;;;5112196;28;20147;-76
2021/06/11 03:34:13;;;;;;;51.80;29.08;;;;;;;;;;5111414;28;20067;-77
2021/06/11 03:37:01;;;;;;;46.97;29.92;;;;;;;;;;5110898;28;20067;-74
2021/06/11 03:39:32;;;;;;;53.22;31.05;;;;;;;;;;5111526;28;20430;-77
2021/06/11 03:41:59;;;;;;;55.13;31.30;;;;;;;;;;5110669;28;20055;-75
2021/06/11 03:44:27;;;;;;;54.35;30.52;;;;;;;;;;5094540;28;20446;-76
2021/06/11 03:46:53;;;;;;;52.78;30.55;;;;;;;;;;5112062;28;20122;-76
2021/06/11 03:49:21;;;;;;;48.28;30.25;;;;;;;;;;5112829;28;20053;-74
2021/06/11 03:51:48;;;;;;;52.03;30.48;;;;;;;;;;5110691;28;20063;-74
2021/06/11 03:54:16;;;;;;;49.88;31.33;;;;;;;;;;5111806;28;20039;-75
2021/06/11 03:56:44;;;;;;;57.60;32.72;;;;;;;;;;5108251;28;20090;-75
2021/06/11 03:59:10;;;;;;;53.83;32.78;;;;;;;;;;5097334;28;20542;-74
2021/06/11 04:01:42;;;;;;;56.45;33.10;;;;;;;;;;5109694;28;20043;-77
2021/06/11 04:04:09;;;;;;;51.13;31.45;;;;;;;;;;5112812;28;20492;-76
2021/06/11 04:06:37;;;;;;;50.95;31.55;;;;;;;;;;5111167;28;20042;-78
2021/06/11 04:09:09;;;;;;;53.05;32.17;;;;;;;;;;5111147;28;20229;-74
2021/06/11 04:11:43;;;;;;;50.55;31.52;;;;;;;;;;5110042;28;20058;-75
2021/06/11 04:14:10;;;;;;;49.70;30.45;;;;;;;;;;5111249;28;20116;-77
2021/06/11 04:16:45;;;;;;;54.90;31.92;;;;;;;;;;5110648;28;20042;-76
2021/06/11 04:19:17;;;;;;;52.00;32.97;;;;;;;;;;5111075;28;20035;-76
2021/06/11 04:21:45;;;;;;;50.15;33.08;;;;;;;;;;5110186;28;20059;-75
2021/06/11 04:24:13;;;;;;;52.88;31.58;;;;;;;;;;5111301;28;20028;-73
2021/06/11 04:26:42;;;;;;;53.38;32.60;;;;;;;;;;5109411;28;20031;-77
2021/06/11 04:29:09;;;;;;;49.17;31.63;;;;;;;;;;5102683;28;20063;-74
2021/06/11 04:31:36;;;;;;;53.75;33.45;;;;;;;;;;5111496;28;20043;-75
2021/06/11 04:34:02;;;;;;;;;;;;;;;;;;5111837;28;20032;-75
2021/06/11 04:36:30;;;;;;;51.53;31.58;;;;;;;;;;5110752;28;19926;-77
2021/06/11 04:39:00;;;;;;;50.67;32.20;;;;;;;;;;5111471;28;20427;-78
2021/06/11 04:41:27;;;;;;;51.58;33.05;;;;;;;;;;5109461;28;20032;-77
2021/06/11 04:43:56;;;;;;;49.88;32.28;;;;;;;;;;5112189;28;20036;-74
2021/06/11 04:46:23;;;;;;;47.67;31.35;;;;;;;;;;5111414;28;20035;-76
2021/06/11 04:48:49;;;;;;;43.70;31.15;;;;;;;;;;5110473;28;20408;-76
2021/06/11 04:51:15;;;;;;;43.63;28.25;;;;;;;;;;5111501;28;20083;-77
2021/06/11 04:53:41;;;;;;;43.50;28.67;;;;;;;;;;5097820;28;20426;-78
2021/06/11 04:56:08;;;;;;;39.88;27.67;;;;;;;;;;5109912;28;20118;-77
2021/06/11 04:58:38;;;;;;;39.05;26.33;;;;;;;;;;5110061;28;20123;-76
2021/06/11 05:01:05;;;;;;;41.70;27.77;;;;;;;;;;5105579;28;20233;-74
2021/06/11 05:03:31;;;;;;;39.30;26.90;;;;;;;;;;5110641;28;20473;-75
2021/06/11 05:05:58;;;;;;;36.72;25.25;;;;;;;;;;5110667;28;20043;-74
2021/06/11 05:08:24;;;;;;;38.15;25.73;;;;;;;;;;5112086;28;20108;-75
2021/06/11 05:10:50;;;;;;;38.58;26.55;;;;;;;;;;5113211;28;20407;-76
2021/06/11 05:13:17;;;;;;;38.58;25.90;;;;;;;;;;5115045;28;20518;-75
2021/06/11 05:15:43;;;;;;;35.65;25.33;;;;;;;;;;5114688;28;20040;-74
2021/06/11 05:18:10;;;;;;;38.90;26.02;;;;;;;;;;5114853;28;20047;-76
2021/06/11 05:20:49;;;;;;;35.58;25.45;;;;;;;;;;5097829;28;20370;-76
2021/06/11 05:23:17;;;;;;;39.72;26.23;;;;;;;;;;5114745;28;20067;-77
2021/06/11 05:25:48;;;;;;;37.17;25.98;;;;;;;;;;5095805;28;20065;-76
2021/06/11 05:28:16;;;;;;;36.78;26.67;;;;;;;;;;5105145;28;20055;-78
2021/06/11 05:30:46;;;;;;;32.95;23.90;;;;;;;;;;5114170;28;20422;-75
2021/06/11 05:33:14;;;;;;;38.03;23.73;;;;;;;;;;5115202;28;20035;-74
2021/06/11 05:35:40;;;;;;;31.38;22.73;;;;;;;;;;5113542;28;20085;-75
2021/06/11 05:38:06;;;;;;;33.67;23.52;;;;;;;;;;5114907;28;20135;-77
2021/06/11 05:40:33;;;;;;;32.10;24.60;;;;;;;;;;5113382;28;20040;-76
2021/06/11 05:43:00;;;;;;;33.00;24.33;;;;;;;;;;5122011;28;20488;-76
2021/06/11 05:45:35;;;;;;;42.45;24.60;;;;;;;;;;5114211;28;20500;-76
2021/06/11 05:48:02;;;;;;;37.92;27.55;;;;;;;;;;5096942;28;20043;-77
2021/06/11 05:50:29;;;;;;;39.42;28.63;;;;;;;;;;5101074;28;20118;-74
2021/06/11 05:52:57;;;;;;;38.60;26.95;;;;;;;;;;5096176;28;20079;-76
2021/06/11 05:55:33;;;;;;;;;;;;;;;;;;5108101;28;20437;-77
2021/06/11 05:58:12;;;;;;;47.88;33.58;;;;;;;;;;5114471;28;19920;-76
2021/06/11 06:00:41;;;;;;;44.22;31.05;;;;;;;;;;5113622;28;20248;-77
2021/06/11 06:03:07;;;;;;;47.47;32.60;;;;;;;;;;5113923;28;20043;-76
2021/06/11 06:05:34;;;;;;;43.33;31.77;;;;;;;;;;5113222;28;20043;-75
2021/06/11 06:08:00;;;;;;;46.30;31.98;;;;;;;;;;5114851;28;20496;-76
2021/06/11 06:10:30;;;;;;;47.50;32.78;;;;;;;;;;5113789;28;20043;-76
2021/06/11 06:12:57;;;;;;;45.33;32.33;;;;;;;;;;5113384;28;20036;-77
2021/06/11 06:15:23;;;;;;;46.88;33.20;;;;;;;;;;5113515;28;20043;-75
2021/06/11 06:17:49;;;;;;;47.05;33.83;;;;;;;;;;5113792;28;20031;-77
2021/06/11 06:20:17;;;;;;;49.95;31.85;;;;;;;;;;5113131;28;20070;-77
2021/06/11 06:22:43;;;;;;;42.70;30.63;;;;;;;;;;5114082;28;20054;-74
2021/06/11 06:25:10;;;;;;;43.85;29.40;;;;;;;;;;5094946;28;20039;-76
2021/06/11 06:27:39;;;;;;;43.08;30.20;;;;;;;;;;5105630;28;20035;-77
2021/06/11 06:30:07;;;;;;;43.90;29.35;;;;;;;;;;5108833;28;20048;-77
2021/06/11 06:32:34;;;;;;;40.25;28.80;;;;;;;;;;5113730;28;20036;-77
2021/06/11 06:35:01;;;;;;;39.97;27.90;;;;;;;;;;5113344;28;20040;-75
2021/06/11 06:37:29;;;;;;;37.15;26.13;;;;;;;;;;5113480;28;20047;-77
2021/06/11 06:39:56;;;;;;;39.47;24.88;;;;;;;;;;5112595;28;20044;-77
2021/06/11 06:42:23;;;;;;;36.47;25.75;;;;;;;;;;5112995;28;20410;-74
2021/06/11 06:44:49;;;;;;;34.88;24.77;;;;;;;;;;5117784;28;20035;-74
2021/06/11 06:47:15;;;;;;;36.83;24.85;;;;;;;;;;5114146;28;20081;-76
2021/06/11 06:49:42;;;;;;;35.20;25.88;;;;;;;;;;5112642;28;20129;-77
2021/06/11 06:52:08;;;;;;;34.83;24.80;;;;;;;;;;5113040;28;20047;-77
2021/06/11 06:54:35;;;;;;;31.20;22.13;;;;;;;;;;5113626;28;20039;-77
2021/06/11 06:57:01;;;;;;;29.75;21.58;;;;;;;;;;5113125;28;20078;-76
2021/06/11 06:59:28;;;;;;;32.45;22.27;;;;;;;;;;5113757;28;20131;-75
2021/06/11 07:01:56;;;;;;;30.75;22.92;;;;;;;;;;5113850;28;20081;-74
2021/06/11 07:04:23;;;;;;;32.83;24.02;;;;;;;;;;5114127;28;20088;-76
2021/06/11 07:06:51;;;;;;;32.58;22.08;;;;;;;;;;5112763;28;20039;-76
2021/06/11 07:09:18;;;;;;;31.95;22.58;;;;;;;;;;5113480;28;20472;-75
2021/06/11 07:11:44;;;;;;;28.17;21.20;;;;;;;;;;5113577;28;20468;-78
2021/06/11 07:14:11;;;;;;;29.23;21.10;;;;;;;;;;5113077;28;20105;-75
2021/06/11 07:16:37;;;;;;;23.67;18.30;;;;;;;;;;5112917;28;20569;-76
2021/06/11 07:19:19;;;;;;;29.67;20.60;;;;;;;;;;5112627;28;20067;-76
2021/06/11 07:21:46;;;;;;;26.25;18.33;;;;;;;;;;5111661;28;20096;-76
2021/06/11 07:24:12;;;;;;;25.00;18.80;;;;;;;;;;5112671;28;20168;-78
2021/06/11 07:26:39;;;;;;;24.70;19.00;;;;;;;;;;5110751;28;20085;-77
2021/06/11 07:29:05;;;;;;;23.75;16.10;;;;;;;;;;5098721;28;20040;-77
2021/06/11 07:31:34;;;;;;;24.23;18.15;;;;;;;;;;5111967;28;20120;-77
2021/06/11 07:34:02;;;;;;;24.13;18.73;;;;;;;;;;5111838;28;20119;-78
2021/06/11 07:36:30;;;;;;;24.33;17.10;;;;;;;;;;5111823;28;20035;-78
2021/06/11 07:38:56;;;;;;;23.25;17.52;;;;;;;;;;5111419;28;20039;-76
2021/06/11 07:41:23;;;;;;;20.90;15.93;;;;;;;;;;5111221;28;20089;-78
2021/06/11 07:43:52;;;;;;;23.60;17.02;;;;;;;;;;5111920;28;20088;-78
2021/06/11 07:46:19;;;;;;;20.98;15.20;;;;;;;;;;5112771;28;20036;-77
2021/06/11 07:48:45;;;;;;;19.35;14.55;;;;;;;;;;5111488;28;20031;-78
2021/06/11 07:51:31;;;;;;;18.80;13.40;;;;;;;;;;5087520;28;20048;-75
2021/06/11 07:53:57;;;;;;;17.13;12.98;;;;;;;;;;5111761;28;20039;-77
2021/06/11 07:56:37;;;;;;;20.88;14.68;;;;;;;;;;5111068;28;20524;-76
2021/06/11 07:59:24;;;;;;;17.77;13.95;;;;;;;;;;5109674;28;20040;-77
2021/06/11 08:02:12;;;;;;;;;;;;;;;;;;5072665;28;20069;-76
2021/06/11 08:04:38;;;;;;;19.55;13.73;;;;;;;;;;5112185;28;19930;-75
2021/06/11 08:07:29;;;;;;;17.73;13.60;;;;;;;;;;5105587;28;20093;-77
2021/06/11 08:09:57;;;;;;;15.55;12.85;;;;;;;;;;5110785;28;20031;-78
2021/06/11 08:12:23;;;;;;;21.20;14.63;;;;;;;;;;5111817;28;20035;-76
2021/06/11 08:14:51;;;;;;;17.33;13.90;;;;;;;;;;5104853;28;20039;-77
2021/06/11 08:17:17;;;;;;;18.40;13.30;;;;;;;;;;5112174;28;20042;-76
2021/06/11 08:19:45;;;;;;;16.20;12.60;;;;;;;;;;5110924;28;20039;-78
2021/06/11 08:22:13;;;;;;;20.05;13.35;;;;;;;;;;5111553;28;20092;-76
2021/06/11 08:24:40;;;;;;;15.13;11.38;;;;;;;;;;5111929;28;20036;-76
2021/06/11 08:27:13;;;;;;;17.65;12.82;;;;;;;;;;5108834;28;20040;-76
2021/06/11 08:29:40;;;;;;;15.10;12.25;;;;;;;;;;5105491;28;20057;-76
2021/06/11 08:32:09;;;;;;;16.85;11.90;;;;;;;;;;5111778;28;20537;-75
2021/06/11 08:34:39;;;;;;;15.77;12.10;;;;;;;;;;5112378;28;20070;-75
2021/06/11 08:37:06;;;;;;;15.15;12.02;;;;;;;;;;5111277;28;20118;-80
2021/06/11 08:39:35;;;;;;;15.05;12.25;;;;;;;;;;5111679;28;20092;-78
2021/06/11 08:42:01;;;;;;;16.00;12.07;;;;;;;;;;5109973;28;20053;-77
2021/06/11 08:44:33;;;;;;;14.63;11.45;;;;;;;;;;5116450;28;20055;-78
2021/06/11 08:47:01;;;;;;;13.55;12.13;;;;;;;;;;5100806;28;20043;-74
2021/06/11 08:49:37;;;;;;;13.90;11.38;;;;;;;;;;5122095;28;20027;-73
2021/06/11 08:52:04;;;;;;;11.23;9.23;;;;;;;;;;5120023;28;20079;-75
2021/06/11 08:54:31;;;;;;;11.98;9.93;;;;;;;;;;5116169;28;20061;-77
2021/06/11 08:57:04;;;;;;;12.02;9.95;;;;;;;;;;5101207;28;20036;-76
2021/06/11 08:59:37;;;;;;;13.88;10.63;;;;;;;;;;5116472;28;20035;-75
2021/06/11 09:02:04;;;;;;;12.93;10.02;;;;;;;;;;5096890;28;20067;-76
2021/06/11 09:04:41;;;;;;;13.75;10.77;;;;;;;;;;5115557;28;20389;-76
2021/06/11 09:07:27;;;;;;;12.93;10.57;;;;;;;;;;5115968;28;20051;-77
2021/06/11 09:09:56;;;;;;;13.55;11.02;;;;;;;;;;5114564;28;20251;-77
2021/06/11 09:12:43;;;;;;;13.07;9.35;;;;;;;;;;5109256;28;20040;-75
2021/06/11 09:15:29;;;;;;;14.05;10.00;;;;;;;;;;5105049;28;20040;-76
2021/06/11 09:18:00;;;;;;;15.20;10.48;;;;;;;;;;5115120;28;20035;-76
2021/06/11 09:20:41;;;;;;;11.80;9.50;;;;;;;;;;5115354;28;20044;-77
2021/06/11 09:23:09;;;;;;;14.02;10.55;;;;;;;;;;5112332;28;20044;-76
2021/06/11 09:25:39;;;;;;;13.13;11.73;;;;;;;;;;5114317;28;20035;-76
2021/06/11 09:28:06;;;;;;;15.10;12.65;;;;;;;;;;5105412;28;20527;-76
2021/06/11 09:30:46;;;;;;;18.17;15.40;;;;;;;;;;5106471;28;20051;-75
2021/06/11 09:33:15;;;;;;;17.80;15.07;;;;;;;;;;5115235;28;20074;-77
2021/06/11 09:35:43;;;;;;;17.48;13.02;;;;;;;;;;5115406;28;20062;-73
2021/06/11 09:38:12;;;;;;;12.50;9.60;;;;;;;;;;5097259;28;20058;-75
2021/06/11 09:40:44;;;;;;;10.13;7.97;;;;;;;;;;5113715;28;20036;-75
2021/06/11 09:43:12;;;;;;;14.45;9.40;;;;;;;;;;5102859;28;20039;-75
2021/06/11 09:45:41;;;;;;;12.02;10.10;;;;;;;;;;5097606;28;20035;-75
2021/06/11 09:48:25;;;;;;;9.40;8.40;;;;;;;;;;5114999;28;20044;-76
2021/06/11 09:50:52;;;;;;;12.35;8.00;;;;;;;;;;5114553;28;20074;-72
2021/06/11 09:53:22;;;;;;;9.52;6.57;;;;;;;;;;5115100;28;20032;-76
2021/06/11 09:55:54;;;;;;;11.90;9.03;;;;;;;;;;5111988;27;20063;-74
2021/06/11 09:58:31;;;;;;;8.35;6.57;;;;;;;;;;5114935;28;20046;-75
2021/06/11 10:01:13;;;;;;;9.60;7.43;;;;;;;;;;5109533;28;20046;-74
2021/06/11 10:03:42;;;;;;;12.18;8.52;;;;;;;;;;5097059;28;20040;-76
2021/06/11 10:06:10;;;;;;;11.00;8.88;;;;;;;;;;5113610;28;20139;-75
2021/06/11 10:08:37;;;;;;;10.77;7.72;;;;;;;;;;5114968;28;20468;-77
2021/06/11 10:11:05;;;;;;;9.65;8.13;;;;;;;;;;5112682;28;20050;-78
2021/06/11 10:13:32;;;;;;;9.38;7.45;;;;;;;;;;5096340;28;20040;-75
2021/06/11 10:16:08;;;;;;;10.52;9.05;;;;;;;;;;5112824;28;20042;-76
2021/06/11 10:18:34;;;;;;;10.70;7.45;;;;;;;;;;5114716;28;20051;-74
2021/06/11 10:21:01;;;;;;;11.27;7.93;;;;;;;;;;5113287;28;20220;-75
2021/06/11 10:23:29;;;;;;;11.13;8.07;;;;;;;;;;5111191;28;20050;-73
2021/06/11 10:25:57;;;;;;;10.75;7.65;;;;;;;;;;5094248;28;20067;-75
2021/06/11 10:28:24;;;;;;;11.70;8.82;;;;;;;;;;5112872;28;20036;-78
2021/06/11 10:30:54;;;;;;;11.25;8.13;;;;;;;;;;5112411;28;20032;-74
2021/06/11 10:33:40;;;;;;;10.50;8.00;;;;;;;;;;5113967;28;20070;-77
2021/06/11 10:36:30;;;;;;;12.27;10.00;;;;;;;;;;5102525;28;20051;-77
2021/06/11 10:39:01;;;;;;;14.05;8.70;;;;;;;;;;5113112;28;20043;-77
2021/06/11 10:41:27;;;;;;;10.75;8.27;;;;;;;;;;5112238;28;20063;-73
2021/06/11 10:43:54;;;;;;;10.70;8.55;;;;;;;;;;5113548;28;20373;-76
2021/06/11 10:46:22;;;;;;;11.50;8.35;;;;;;;;;;5113699;28;20375;-73
2021/06/11 10:48:57;;;;;;;13.18;9.82;;;;;;;;;;5116235;28;20039;-76
2021/06/11 10:51:33;;;;;;;12.68;8.52;;;;;;;;;;5113402;28;20044;-77
2021/06/11 10:54:32;;;;;;;11.70;9.15;;;;;;;;;;5115178;28;20484;-74
2021/06/11 10:56:59;;;;;;;15.00;10.15;;;;;;;;;;5065624;28;20414;-76
2021/06/11 10:59:54;;;;;;;13.30;9.38;;;;;;;;;;5115254;28;20488;-77
2021/06/11 11:02:20;;;;;;;13.10;10.05;;;;;;;;;;5117367;28;20038;-77
2021/06/11 11:04:48;;;;;;;13.43;10.25;;;;;;;;;;5114771;28;20568;-77
2021/06/11 11:07:24;;;;;;;13.50;10.65;;;;;;;;;;5102732;28;20488;-73
2021/06/11 11:09:54;;;;;;;14.15;10.40;;;;;;;;;;5113533;28;20091;-75
2021/06/11 11:12:21;;;;;;;13.50;11.00;;;;;;;;;;5113136;28;20104;-77
2021/06/11 11:14:47;;;;;;;10.85;9.13;;;;;;;;;;5112612;28;20065;-77
2021/06/11 11:17:14;;;;;;;10.07;8.77;;;;;;;;;;5112904;28;20057;-76
2021/06/11 11:20:07;;;;;;;11.02;7.88;;;;;;;;;;5112913;28;20040;-77
2021/06/11 11:22:35;;;;;;;12.25;9.60;;;;;;;;;;5109371;28;20067;-73
2021/06/11 11:25:13;;;;;;;10.55;8.57;;;;;;;;;;5111152;28;20043;-74
2021/06/11 11:27:49;;;;;;;10.40;8.35;;;;;;;;;;5105116;28;20129;-77
2021/06/11 11:30:19;;;;;;;12.20;9.02;;;;;;;;;;5110939;28;20036;-77
2021/06/11 11:32:45;;;;;;;9.43;7.30;;;;;;;;;;5094076;28;20051;-75
2021/06/11 11:35:14;;;;;;;9.80;8.80;;;;;;;;;;5111630;28;20490;-77
2021/06/11 11:37:40;;;;;;;9.68;8.50;;;;;;;;;;5113298;28;20044;-75
2021/06/11 11:40:07;;;;;;;10.98;9.55;;;;;;;;;;5111034;28;20400;-76
2021/06/11 11:42:33;;;;;;;10.50;8.23;;;;;;;;;;5112348;28;20036;-76
2021/06/11 11:44:59;;;;;;;10.05;8.43;;;;;;;;;;5111929;28;20031;-77
2021/06/11 11:47:25;;;;;;;9.88;7.38;;;;;;;;;;5112212;28;20499;-76
2021/06/11 11:49:53;;;;;;;8.50;6.57;;;;;;;;;;5105021;28;20046;-73
2021/06/11 11:52:19;;;;;;;8.95;6.28;;;;;;;;;;5112306;28;20055;-75
2021/06/11 11:54:45;;;;;;;9.77;7.60;;;;;;;;;;5111962;28;20035;-77
2021/06/11 11:57:11;;;;;;;9.48;7.90;;;;;;;;;;5111738;28;20040;-76
2021/06/11 11:59:38;;;;;;;10.20;8.15;;;;;;;;;;5111900;28;20035;-77
2021/06/11 12:02:09;;;;;;;7.97;6.50;;;;;;;;;;5111444;28;20385;-76
2021/06/11 12:04:35;;;;;;;9.25;7.35;;;;;;;;;;5093312;28;20405;-77
2021/06/11 12:07:01;;;;;;;11.02;9.27;;;;;;;;;;5111230;28;20384;-79
2021/06/11 12:09:27;;;;;;;8.45;7.50;;;;;;;;;;5111278;28;20037;-76
2021/06/11 12:11:54;;;;;;;8.98;7.65;;;;;;;;;;5110764;28;20040;-78
2021/06/11 12:14:20;;;;;;;8.75;7.85;;;;;;;;;;5111649;28;20035;-74
2021/06/11 12:16:46;;;;;;;9.43;8.43;;;;;;;;;;5112924;28;20044;-74
2021/06/11 12:19:12;;;;;;;11.55;10.27;;;;;;;;;;5111521;28;20035;-76
2021/06/11 12:21:38;;;;;;;12.95;11.43;;;;;;;;;;5094340;28;20252;-77
2021/06/11 12:24:05;;;;;;;12.80;11.50;;;;;;;;;;5110991;28;20035;-79
2021/06/11 12:26:36;;;;;;;12.25;10.98;;;;;;;;;;5110306;28;20130;-78
2021/06/11 12:29:05;;;;;;;10.40;8.52;;;;;;;;;;5102150;28;20035;-78
2021/06/11 12:31:33;;;;;;;8.13;7.28;;;;;;;;;;5111527;28;20385;-77
2021/06/11 12:34:00;;;;;;;9.40;7.63;;;;;;;;;;5110944;28;20027;-77
2021/06/11 12:36:26;;;;;;;6.55;5.95;;;;;;;;;;5111423;28;20071;-76
2021/06/11 12:38:58;;;;;;;6.57;5.88;;;;;;;;;;5107314;28;20047;-77
2021/06/11 12:41:25;;;;;;;7.18;6.47;;;;;;;;;;5110495;28;20036;-75
2021/06/11 12:46:39;;;;;;;8.27;7.40;;;;;;;;;;5111591;28;20047;-76
2021/06/11 12:49:05;;;;;;;7.25;6.50;;;;;;;;;;5097271;28;20519;-76
2021/06/11 12:51:32;;;;;;;7.93;6.15;;;;;;;;;;5099308;28;20054;-73
2021/06/11 12:54:07;;;;;;;7.03;6.00;;;;;;;;;;5097693;28;20407;-75
2021/06/11 12:56:33;;;;;;;6.25;5.35;;;;;;;;;;5109981;28;20042;-77
2021/06/11 12:58:59;;;;;;;7.45;5.88;;;;;;;;;;5106777;28;20085;-74
2021/06/11 13:01:28;;;;;;;12.15;5.97;;;;;;;;;;5106198;28;20040;-75
2021/06/11 13:03:54;;;;;;;9.13;6.88;;;;;;;;;;5110958;28;20104;-76
2021/06/11 13:06:20;;;;;;;8.70;7.72;;;;;;;;;;5110808;28;20035;-77
2021/06/11 13:08:46;;;;;;;7.38;6.35;;;;;;;;;;5110987;28;20122;-75
2021/06/11 13:11:13;;;;;;;9.27;7.70;;;;;;;;;;5109602;28;20047;-74
2021/06/11 13:13:39;;;;;;;7.72;6.82;;;;;;;;;;5111345;28;20035;-75
2021/06/11 13:16:05;;;;;;;11.45;8.55;;;;;;;;;;5111584;28;20043;-74
2021/06/11 13:18:31;;;;;;;9.32;8.38;;;;;;;;;;5117564;28;20065;-74
2021/06/11 13:20:59;;;;;;;9.45;8.55;;;;;;;;;;5110455;28;20476;-75
2021/06/11 13:23:30;;;;;;;9.57;8.05;;;;;;;;;;5111260;28;20032;-77
2021/06/11 13:25:56;;;;;;;8.45;7.55;;;;;;;;;;5107779;28;20473;-73
2021/06/11 13:28:23;;;;;;;8.27;7.30;;;;;;;;;;5101873;28;20393;-74
2021/06/11 13:30:49;;;;;;;10.50;9.40;;;;;;;;;;5113485;28;20084;-76
2021/06/11 13:33:19;;;;;;;9.93;8.48;;;;;;;;;;5114846;28;20063;-73
2021/06/11 13:35:45;;;;;;;9.77;8.77;;;;;;;;;;5098742;28;20055;-75
2021/06/11 13:38:12;;;;;;;10.55;8.85;;;;;;;;;;5114441;28;20160;-77
2021/06/11 13:40:40;;;;;;;11.45;10.25;;;;;;;;;;5113260;28;20035;-77
2021/06/11 13:43:07;;;;;;;8.65;7.43;;;;;;;;;;5096269;28;20096;-74
2021/06/11 13:45:33;;;;;;;10.73;7.80;;;;;;;;;;5114521;28;20040;-76
2021/06/11 13:48:00;;;;;;;9.57;8.48;;;;;;;;;;5114419;28;20555;-77
2021/06/11 13:50:26;;;;;;;8.35;7.30;;;;;;;;;;5113905;28;20084;-77
2021/06/11 13:52:53;;;;;;;8.02;7.22;;;;;;;;;;5102858;28;20043;-76
2021/06/11 13:55:20;;;;;;;6.47;5.60;;;;;;;;;;5114164;28;20200;-75
2021/06/11 13:57:46;;;;;;;9.00;6.38;;;;;;;;;;5114912;28;20177;-77
2021/06/11 14:00:17;;;;;;;8.55;7.00;;;;;;;;;;5101062;28;20032;-73
2021/06/11 14:02:43;;;;;;;6.97;5.28;;;;;;;;;;5114027;28;20492;-76
2021/06/11 14:05:13;;;;;;;5.75;5.15;;;;;;;;;;5113280;28;20162;-76
2021/06/11 14:07:43;;;;;;;6.32;5.63;;;;;;;;;;5113872;28;20039;-75
2021/06/11 14:10:10;;;;;;;5.18;4.68;;;;;;;;;;5111734;28;20035;-75
2021/06/11 14:12:38;;;;;;;4.05;3.15;;;;;;;;;;5113584;28;20392;-75
2021/06/11 14:15:05;;;;;;;3.40;2.85;;;;;;;;;;5113154;28;20235;-74
2021/06/11 14:17:38;;;;;;;3.70;3.20;;;;;;;;;;5113462;28;20139;-75
2021/06/11 14:20:05;;;;;;;5.15;3.35;;;;;;;;;;5112984;28;20107;-75
2021/06/11 14:22:32;;;;;;;4.28;3.45;;;;;;;;;;5113081;28;20396;-77
2021/06/11 14:24:59;;;;;;;5.60;3.65;;;;;;;;;;5112478;28;20498;-76
2021/06/11 14:27:25;;;;;;;5.90;4.85;;;;;;;;;;5104166;28;20039;-74
2021/06/11 14:29:52;;;;;;;4.40;3.75;;;;;;;;;;5109026;28;20036;-73
2021/06/11 14:32:19;;;;;;;6.22;4.00;;;;;;;;;;5113184;28;20061;-73
2021/06/11 14:34:47;;;;;;;5.95;5.00;;;;;;;;;;5113546;28;20047;-74
2021/06/11 14:37:14;;;;;;;6.15;4.68;;;;;;;;;;5113097;28;20104;-75
2021/06/11 14:39:40;;;;;;;4.95;3.90;;;;;;;;;;5113031;28;20109;-75
2021/06/11 14:42:06;;;;;;;5.78;4.70;;;;;;;;;;5111493;28;20036;-75